createdAt,value
2023-03-20T00:01:24.114Z,70.28
2023-03-20T00:03:52.257Z,74.82
2023-03-20T00:06:24.703Z,75.70
2023-03-20T00:08:53.848Z,71.97
2023-03-20T00:11:33.186Z,72.47
2023-03-20T00:14:07.906Z,72.60
2023-03-20T00:16:40.338Z,74.25
2023-03-20T00:19:31.221Z,76.68
2023-03-20T00:21:59.156Z,75.43
2023-03-20T00:24:26.709Z,78.68
2023-03-20T00:26:54.393Z,75.55
2023-03-20T00:29:23.149Z,72.45
2023-03-20T00:31:50.909Z,76.82
2023-03-20T00:34:20.961Z,74.03
2023-03-20T00:36:48.244Z,74.25
2023-03-20T00:39:15.770Z,72.38
2023-03-20T00:41:48.116Z,77.32
2023-03-20T00:44:15.751Z,72.13
2023-03-20T00:46:44.922Z,75.15
2023-03-20T00:49:12.580Z,77.60
2023-03-20T00:51:39.743Z,73.88
2023-03-20T00:54:15.537Z,77.97
2023-03-20T00:56:59.461Z,74.45
2023-03-20T00:59:38.097Z,80.28
2023-03-20T01:02:05.527Z,80.47
2023-03-20T01:04:41.378Z,77.22
2023-03-20T01:07:13.794Z,79.95
2023-03-20T01:09:41.792Z,75.85
2023-03-20T01:12:12.350Z,75.70
2023-03-20T01:14:42.397Z,73.93
2023-03-20T01:17:20.143Z,77.80
2023-03-20T01:19:47.888Z,74.38
2023-03-20T01:22:17.850Z,77.28
2023-03-20T01:24:45.598Z,75.20
2023-03-20T01:27:18.096Z,78.57
2023-03-20T01:29:46.783Z,75.70
2023-03-20T01:32:17.922Z,75.00
2023-03-20T01:34:49.024Z,72.47
2023-03-20T01:37:23.993Z,75.95
2023-03-20T01:39:52.263Z,74.63
2023-03-20T01:42:19.734Z,77.22
2023-03-20T01:44:47.373Z,77.30
2023-03-20T01:47:21.989Z,79.35
2023-03-20T01:50:24.338Z,77.25
2023-03-20T01:53:11.993Z,76.57
2023-03-20T01:55:47.122Z,76.65
2023-03-20T01:58:20.822Z,75.85
2023-03-20T02:00:49.382Z,77.80
2023-03-20T02:03:19.958Z,74.85
2023-03-20T02:06:07.628Z,80.15
2023-03-20T02:08:53.972Z,79.15
2023-03-20T02:11:24.380Z,74.65
2023-03-20T02:13:55.366Z,78.35
2023-03-20T02:16:24.036Z,79.50
2023-03-20T02:20:04.359Z,77.35
2023-03-20T02:23:16.350Z,77.85
2023-03-20T02:25:54.800Z,76.03
2023-03-20T02:28:48.445Z,279.05
2023-03-20T02:31:42.758Z,107.45
2023-03-20T02:34:36.532Z,95.07
2023-03-20T02:37:51.761Z,87.75
2023-03-20T02:40:19.240Z,75.28
2023-03-20T02:43:11.118Z,74.18
2023-03-20T02:45:54.302Z,75.50
2023-03-20T02:48:41.386Z,74.80
2023-03-20T02:51:57.205Z,74.13
2023-03-20T02:54:48.945Z,76.82
2023-03-20T02:57:40.940Z,75.78
2023-03-20T03:00:24.719Z,70.68
2023-03-20T03:03:05.370Z,70.93
2023-03-20T03:05:57.038Z,73.90
2023-03-20T03:08:28.718Z,72.40
2023-03-20T03:11:03.303Z,74.37
2023-03-20T03:13:33.707Z,72.82
2023-03-20T03:18:39.562Z,67.70
2023-03-20T03:21:08.238Z,70.18
2023-03-20T03:23:47.777Z,69.00
2023-03-20T03:26:38.016Z,69.47
2023-03-20T03:29:17.042Z,69.55
2023-03-20T03:31:46.571Z,71.10
2023-03-20T03:34:17.781Z,92.80
2023-03-20T03:36:44.948Z,117.82
2023-03-20T03:39:23.970Z,102.45
2023-03-20T03:42:12.039Z,79.40
2023-03-20T03:44:50.220Z,71.65
2023-03-20T03:47:27.110Z,74.70
2023-03-20T03:50:01.409Z,69.85
2023-03-20T03:52:31.795Z,70.07
2023-03-20T03:55:04.476Z,71.63
2023-03-20T04:00:04.782Z,68.20
2023-03-20T04:02:43.059Z,73.47
2023-03-20T04:05:13.116Z,69.00
2023-03-20T04:07:45.950Z,72.65
2023-03-20T04:10:14.659Z,71.00
2023-03-20T04:12:44.727Z,70.53
2023-03-20T04:15:14.245Z,70.93
2023-03-20T04:17:42.941Z,66.22
2023-03-20T04:20:13.273Z,68.35
2023-03-20T04:22:41.114Z,67.20
2023-03-20T04:25:24.100Z,60.58
2023-03-20T04:27:54.191Z,61.95
2023-03-20T04:30:30.512Z,63.10
2023-03-20T04:33:17.548Z,61.38
2023-03-20T04:36:06.314Z,57.60
2023-03-20T04:38:33.527Z,62.05
2023-03-20T04:41:02.608Z,64.18
2023-03-20T04:43:29.846Z,60.60
2023-03-20T04:45:59.694Z,59.92
2023-03-20T04:48:28.064Z,58.75
2023-03-20T04:50:55.936Z,59.80
2023-03-20T04:53:29.723Z,64.07
2023-03-20T04:55:57.200Z,61.83
2023-03-20T04:58:24.498Z,62.25
2023-03-20T05:00:52.041Z,60.75
2023-03-20T05:03:21.840Z,65.32
2023-03-20T05:05:50.976Z,59.07
2023-03-20T05:08:18.831Z,55.60
2023-03-20T05:10:46.556Z,55.22
2023-03-20T05:13:32.492Z,54.53
2023-03-20T05:16:10.347Z,48.70
2023-03-20T05:18:55.451Z,46.60
2023-03-20T05:21:49.384Z,46.67
2023-03-20T05:24:29.160Z,45.95
2023-03-20T05:27:16.192Z,44.20
2023-03-20T05:29:51.815Z,46.35
2023-03-20T05:32:39.471Z,46.08
2023-03-20T05:35:32.964Z,46.58
2023-03-20T05:38:35.747Z,48.30
2023-03-20T05:41:21.220Z,48.63
2023-03-20T05:44:03.900Z,47.70
2023-03-20T05:46:54.200Z,49.83
2023-03-20T05:49:41.477Z,51.00
2023-03-20T05:52:26.742Z,52.22
2023-03-20T05:55:11.072Z,50.00
2023-03-20T05:58:03.496Z,50.53
2023-03-20T06:00:50.999Z,54.33
2023-03-20T06:03:48.777Z,56.63
2023-03-20T06:06:23.187Z,52.83
2023-03-20T06:08:52.179Z,50.88
2023-03-20T06:11:19.750Z,50.97
2023-03-20T06:13:46.986Z,51.22
2023-03-20T06:16:14.829Z,48.22
2023-03-20T06:18:42.088Z,48.47
2023-03-20T06:21:11.874Z,48.63
2023-03-20T06:23:39.485Z,48.70
2023-03-20T06:26:08.207Z,48.55
2023-03-20T06:28:47.891Z,46.05
2023-03-20T06:31:15.509Z,49.70
2023-03-20T06:33:43.096Z,48.50
2023-03-20T06:36:10.906Z,47.03
2023-03-20T06:38:38.196Z,45.58
2023-03-20T06:41:14.914Z,49.03
2023-03-20T06:43:46.501Z,50.35
2023-03-20T06:46:14.441Z,53.10
2023-03-20T06:48:42.216Z,51.58
2023-03-20T06:51:10.840Z,56.53
2023-03-20T06:53:48.546Z,53.30
2023-03-20T06:56:19.467Z,56.03
2023-03-20T06:58:46.703Z,56.97
2023-03-20T07:01:20.429Z,58.00
2023-03-20T07:03:47.899Z,57.55
2023-03-20T07:08:47.751Z,56.47
2023-03-20T07:11:15.438Z,58.10
2023-03-20T07:13:43.192Z,58.70
2023-03-20T07:16:23.561Z,55.25
2023-03-20T07:18:51.229Z,56.92
2023-03-20T07:21:21.703Z,53.65
2023-03-20T07:23:49.098Z,53.72
2023-03-20T07:26:17.074Z,56.22
2023-03-20T07:28:44.619Z,53.58
2023-03-20T07:31:26.648Z,52.38
2023-03-20T07:34:02.186Z,49.83
2023-03-20T07:36:30.616Z,50.80
2023-03-20T07:38:57.837Z,52.47
2023-03-20T07:41:26.272Z,53.08
2023-03-20T07:44:02.103Z,51.00
2023-03-20T07:46:48.307Z,49.55
2023-03-20T07:49:20.987Z,45.65
2023-03-20T07:51:50.336Z,46.42
2023-03-20T07:54:18.272Z,46.15
2023-03-20T07:56:45.898Z,45.65
2023-03-20T07:59:13.516Z,44.55
2023-03-20T08:01:41.358Z,47.15
2023-03-20T08:04:08.958Z,46.47
2023-03-20T08:06:39.341Z,44.80
2023-03-20T08:09:07.333Z,45.90
2023-03-20T08:11:35.013Z,44.30
2023-03-20T08:14:02.333Z,44.55
2023-03-20T08:16:29.900Z,44.85
2023-03-20T08:19:01.488Z,45.75
2023-03-20T08:21:30.678Z,46.60
2023-03-20T08:23:58.312Z,46.13
2023-03-20T08:26:26.032Z,46.47
2023-03-20T08:28:53.558Z,48.05
2023-03-20T08:31:21.067Z,48.80
2023-03-20T08:33:48.363Z,43.58
2023-03-20T08:36:17.198Z,47.13
2023-03-20T08:38:44.435Z,43.08
2023-03-20T08:41:11.991Z,43.80
2023-03-20T08:43:39.375Z,45.33
2023-03-20T08:46:08.233Z,45.95
2023-03-20T08:48:36.196Z,46.55
2023-03-20T08:51:04.113Z,46.13
2023-03-20T08:53:31.328Z,44.95
2023-03-20T08:55:58.753Z,45.60
2023-03-20T08:58:26.064Z,42.08
2023-03-20T09:00:54.710Z,46.45
2023-03-20T09:03:22.042Z,41.45
2023-03-20T09:05:52.168Z,43.65
2023-03-20T09:08:19.486Z,42.03
2023-03-20T09:10:51.434Z,42.83
2023-03-20T09:13:27.282Z,46.97
2023-03-20T09:15:56.862Z,46.13
2023-03-20T09:18:24.638Z,45.13
2023-03-20T09:20:52.683Z,44.70
2023-03-20T09:23:20.312Z,46.15
2023-03-20T09:25:48.241Z,38.88
2023-03-20T09:28:15.774Z,40.08
2023-03-20T09:30:43.837Z,37.70
2023-03-20T09:33:11.653Z,38.47
2023-03-20T09:35:40.431Z,35.95
2023-03-20T09:38:08.544Z,35.28
2023-03-20T09:40:48.749Z,34.25
2023-03-20T09:43:50.398Z,37.03
2023-03-20T09:46:49.310Z,31.40
2023-03-20T09:49:29.054Z,31.63
2023-03-20T09:51:59.918Z,30.98
2023-03-20T09:54:54.154Z,31.58
2023-03-20T09:57:25.987Z,31.55
2023-03-20T10:00:01.755Z,30.73
2023-03-20T10:03:02.679Z,32.05
2023-03-20T10:05:38.999Z,32.03
2023-03-20T10:08:14.983Z,33.35
2023-03-20T10:10:56.033Z,32.63
2023-03-20T10:13:52.357Z,34.90
2023-03-20T10:16:25.731Z,38.28
2023-03-20T10:19:28.501Z,35.45
2023-03-20T10:22:32.532Z,36.65
2023-03-20T10:25:20.495Z,34.78
2023-03-20T10:27:51.110Z,35.90
2023-03-20T10:30:36.270Z,35.75
2023-03-20T10:33:26.578Z,30.50
2023-03-20T10:36:02.360Z,24.92
2023-03-20T10:38:42.106Z,36.03
2023-03-20T10:41:16.434Z,30.02
2023-03-20T10:43:46.156Z,35.70
2023-03-20T10:46:19.587Z,36.53
2023-03-20T10:48:52.175Z,27.48
2023-03-20T10:51:24.605Z,26.58
2023-03-20T10:53:58.198Z,28.55
2023-03-20T10:56:42.636Z,22.70
2023-03-20T10:59:44.864Z,23.10
2023-03-20T11:02:14.025Z,21.67
2023-03-20T11:04:41.504Z,19.33
2023-03-20T11:07:18.760Z,18.95
2023-03-20T11:09:46.503Z,19.83
2023-03-20T11:12:19.959Z,20.45
2023-03-20T11:14:47.209Z,19.45
2023-03-20T11:17:16.769Z,20.98
2023-03-20T11:19:43.949Z,19.35
2023-03-20T11:22:26.254Z,19.45
2023-03-20T11:24:58.957Z,22.58
2023-03-20T11:27:31.865Z,22.38
2023-03-20T11:30:01.846Z,23.10
2023-03-20T11:32:35.351Z,24.23
2023-03-20T11:35:34.739Z,24.25
2023-03-20T11:38:14.233Z,21.88
2023-03-20T11:40:41.793Z,20.20
2023-03-20T11:43:13.093Z,19.90
2023-03-20T11:45:43.889Z,20.23
2023-03-20T11:48:24.740Z,20.05
2023-03-20T11:51:23.979Z,20.50
2023-03-20T11:54:05.500Z,18.35
2023-03-20T11:56:34.454Z,17.98
2023-03-20T11:59:03.903Z,18.55
2023-03-20T12:01:44.593Z,20.15
2023-03-20T12:04:45.761Z,17.77
2023-03-20T12:07:34.703Z,18.92
2023-03-20T12:10:07.170Z,19.02
2023-03-20T12:12:52.634Z,18.95
2023-03-20T12:15:30.832Z,18.63
2023-03-20T12:18:16.642Z,21.73
2023-03-20T12:21:02.743Z,21.63
2023-03-20T12:23:52.545Z,24.02
2023-03-20T12:26:31.899Z,23.67
2023-03-20T12:29:29.479Z,25.10
2023-03-20T12:32:15.090Z,24.95
2023-03-20T12:34:52.667Z,24.98
2023-03-20T12:37:22.092Z,25.42
2023-03-20T12:39:55.502Z,25.10
2023-03-20T12:42:22.985Z,26.27
2023-03-20T12:44:58.935Z,25.85
2023-03-20T12:47:44.872Z,25.80
2023-03-20T12:50:18.321Z,21.45
2023-03-20T12:52:54.482Z,22.45
2023-03-20T12:55:26.081Z,23.85
2023-03-20T12:58:27.226Z,23.42
2023-03-20T13:01:03.735Z,24.20
2023-03-20T13:04:03.328Z,24.33
2023-03-20T13:06:48.225Z,22.20
2023-03-20T13:09:31.101Z,19.92
2023-03-20T13:12:28.969Z,21.35
2023-03-20T13:15:14.595Z,20.40
2023-03-20T13:17:50.291Z,18.52
2023-03-20T13:20:28.748Z,16.65
2023-03-20T13:23:10.879Z,17.42
2023-03-20T13:25:54.583Z,17.80
2023-03-20T13:28:46.069Z,14.18
2023-03-20T13:31:37.016Z,13.30
2023-03-20T13:34:26.092Z,13.65
2023-03-20T13:37:22.248Z,13.65
2023-03-20T13:40:15.588Z,13.88
2023-03-20T13:42:49.635Z,13.70
2023-03-20T13:45:31.665Z,15.57
2023-03-20T13:48:06.318Z,14.80
2023-03-20T13:50:36.491Z,15.02
2023-03-20T13:53:16.304Z,15.20
2023-03-20T13:56:00.848Z,15.23
2023-03-20T13:58:43.010Z,15.43
2023-03-20T14:01:35.520Z,17.13
2023-03-20T14:04:03.789Z,17.90
2023-03-20T14:06:30.926Z,17.52
2023-03-20T14:09:00.372Z,18.98
2023-03-20T14:11:35.574Z,18.33
2023-03-20T14:14:16.313Z,19.75
2023-03-20T14:16:43.971Z,25.95
2023-03-20T14:19:24.389Z,31.88
2023-03-20T14:21:55.003Z,97.80
2023-03-20T14:24:26.660Z,40.97
2023-03-20T14:26:58.590Z,46.85
2023-03-20T14:32:23.743Z,106.30
2023-03-20T14:34:58.825Z,40.15
2023-03-20T14:37:31.199Z,21.83
2023-03-20T14:40:06.118Z,79.53
2023-03-20T14:42:59.086Z,46.33
2023-03-20T14:45:29.314Z,25.67
2023-03-20T14:48:18.121Z,24.85
2023-03-20T14:51:19.615Z,23.63
2023-03-20T14:53:58.576Z,28.23
2023-03-20T14:56:31.749Z,21.15
2023-03-20T14:59:06.764Z,21.65
2023-03-20T15:01:39.908Z,22.73
2023-03-20T15:04:15.370Z,20.00
2023-03-20T15:06:53.010Z,24.83
2023-03-20T15:09:22.347Z,22.00
2023-03-20T15:11:51.011Z,26.70
2023-03-20T15:14:27.899Z,26.52
2023-03-20T15:17:00.603Z,24.17
2023-03-20T15:19:28.399Z,22.83
2023-03-20T15:21:56.622Z,24.23
2023-03-20T15:24:26.997Z,26.08
2023-03-20T15:26:58.838Z,24.35
2023-03-20T15:29:27.359Z,28.63
2023-03-20T15:32:13.454Z,29.13
2023-03-20T15:34:42.304Z,31.63
2023-03-20T15:37:19.835Z,25.77
2023-03-20T15:39:56.268Z,30.67
2023-03-20T15:42:25.246Z,57.25
2023-03-20T15:44:55.501Z,29.40
2023-03-20T15:47:25.358Z,94.50
2023-03-20T15:49:56.898Z,62.92
2023-03-20T15:52:38.409Z,27.55
2023-03-20T15:55:11.778Z,88.43
2023-03-20T15:57:42.147Z,30.08
2023-03-20T16:00:26.437Z,31.35
2023-03-20T16:02:54.107Z,31.98
2023-03-20T16:05:25.998Z,34.75
2023-03-20T16:07:54.258Z,33.05
2023-03-20T16:10:30.204Z,52.08
2023-03-20T16:12:58.317Z,32.92
2023-03-20T16:15:29.741Z,32.40
2023-03-20T16:18:05.600Z,37.00
2023-03-20T16:21:01.623Z,39.92
2023-03-20T16:23:41.146Z,45.30
2023-03-20T16:26:15.853Z,39.88
2023-03-20T16:28:47.247Z,41.22
2023-03-20T16:31:25.226Z,49.10
2023-03-20T16:33:53.009Z,39.05
2023-03-20T16:36:27.594Z,42.28
2023-03-20T16:39:17.440Z,80.13
2023-03-20T16:41:46.579Z,45.30
2023-03-20T16:44:22.534Z,78.60
2023-03-20T16:47:01.633Z,55.90
2023-03-20T16:49:35.036Z,80.30
2023-03-20T16:52:09.785Z,57.13
2023-03-20T16:54:38.452Z,50.55
2023-03-20T16:57:10.673Z,52.45
2023-03-20T16:59:39.781Z,44.50
2023-03-20T17:02:36.954Z,44.88
2023-03-20T17:05:11.049Z,41.70
2023-03-20T17:07:38.447Z,41.22
2023-03-20T17:10:18.286Z,43.72
2023-03-20T17:12:47.779Z,42.65
2023-03-20T17:15:21.623Z,39.95
2023-03-20T17:17:48.813Z,43.33
2023-03-20T17:20:26.319Z,47.55
2023-03-20T17:22:53.720Z,41.78
2023-03-20T17:25:21.455Z,44.35
2023-03-20T17:27:48.797Z,47.33
2023-03-20T17:30:25.467Z,45.60
2023-03-20T17:32:53.465Z,46.08
2023-03-20T17:35:21.427Z,44.95
2023-03-20T17:37:49.015Z,49.63
2023-03-20T17:40:25.302Z,46.08
2023-03-20T17:42:52.601Z,48.78
2023-03-20T17:45:21.185Z,46.90
2023-03-20T17:47:48.945Z,49.15
2023-03-20T17:50:24.288Z,45.95
2023-03-20T17:52:52.045Z,47.78
2023-03-20T17:55:19.709Z,49.28
2023-03-20T17:57:48.600Z,50.10
2023-03-20T18:00:19.544Z,52.40
2023-03-20T18:02:47.198Z,53.60
2023-03-20T18:05:14.713Z,54.22
2023-03-20T18:07:42.278Z,53.60
2023-03-20T18:10:28.717Z,68.75
2023-03-20T18:12:56.191Z,55.42
2023-03-20T18:15:23.553Z,56.70
2023-03-20T18:17:51.138Z,57.75
2023-03-20T18:20:39.656Z,55.55
2023-03-20T18:23:08.092Z,65.15
2023-03-20T18:25:36.127Z,70.50
2023-03-20T18:28:06.622Z,82.38
2023-03-20T18:30:36.723Z,101.25
2023-03-20T18:33:05.164Z,76.10
2023-03-20T18:35:32.956Z,97.40
2023-03-20T18:38:01.044Z,92.35
2023-03-20T18:40:31.171Z,98.10
2023-03-20T18:42:59.310Z,98.45
2023-03-20T18:45:28.416Z,76.40
2023-03-20T18:47:57.060Z,66.72
2023-03-20T18:50:28.563Z,74.40
2023-03-20T18:55:27.132Z,64.45
2023-03-20T18:57:55.188Z,66.68
2023-03-20T19:00:35.942Z,62.97
2023-03-20T19:03:04.282Z,64.97
2023-03-20T19:05:31.513Z,63.70
2023-03-20T19:07:59.887Z,62.25
2023-03-20T19:10:36.902Z,64.97
2023-03-20T19:13:07.483Z,65.38
2023-03-20T19:15:37.200Z,67.00
2023-03-20T19:18:06.987Z,66.57
2023-03-20T19:21:00.408Z,66.10
2023-03-20T19:23:31.648Z,72.13
2023-03-20T19:25:58.975Z,67.45
2023-03-20T19:28:39.893Z,70.28
2023-03-20T19:31:09.862Z,71.53
2023-03-20T19:33:38.656Z,76.97
2023-03-20T19:36:08.130Z,78.28
2023-03-20T19:38:37.056Z,74.28
2023-03-20T19:41:04.525Z,71.68
2023-03-20T19:43:32.406Z,71.65
2023-03-20T19:46:00.167Z,72.07
2023-03-20T19:51:26.771Z,69.78
2023-03-20T19:53:55.315Z,64.03
2023-03-20T19:56:23.783Z,59.30
2023-03-20T19:58:52.843Z,60.53
2023-03-20T20:01:23.973Z,49.90
2023-03-20T20:03:53.680Z,56.78
2023-03-20T20:06:22.461Z,57.42
2023-03-20T20:08:50.833Z,62.08
2023-03-20T20:11:19.190Z,53.35
2023-03-20T20:14:04.695Z,51.90
2023-03-20T20:16:32.773Z,51.97
2023-03-20T20:19:00.599Z,52.40
2023-03-20T20:22:13.411Z,51.55
2023-03-20T20:24:16.215Z,53.55
2023-03-20T20:26:53.351Z,49.88
2023-03-20T20:29:24.549Z,50.72
2023-03-20T20:31:51.895Z,51.15
2023-03-20T20:38:06.654Z,52.78
2023-03-20T20:39:54.268Z,53.30
2023-03-20T20:42:22.834Z,79.32
2023-03-20T20:44:50.716Z,113.90
2023-03-20T20:47:18.021Z,124.78
2023-03-20T20:49:48.208Z,60.72
2023-03-20T20:52:15.910Z,59.65
2023-03-20T20:54:43.557Z,70.30
2023-03-20T20:57:12.132Z,50.72
2023-03-20T20:59:41.211Z,85.45
2023-03-20T21:02:12.901Z,55.42
2023-03-20T21:04:42.137Z,97.13
2023-03-20T21:07:13.380Z,117.57
2023-03-20T21:09:41.367Z,118.80
2023-03-20T21:12:10.657Z,78.88
2023-03-20T21:14:38.930Z,57.17
2023-03-20T21:17:07.316Z,56.60
2023-03-20T21:19:40.247Z,71.78
2023-03-20T21:22:09.932Z,73.50
2023-03-20T21:24:39.261Z,65.95
2023-03-20T21:27:10.928Z,61.58
2023-03-20T21:29:39.139Z,61.58
2023-03-20T21:32:07.001Z,128.30
2023-03-20T21:34:34.904Z,225.13
2023-03-20T21:37:49.539Z,97.32
2023-03-20T21:39:51.626Z,84.13
2023-03-20T21:42:20.464Z,66.75
2023-03-20T21:45:44.097Z,73.88
2023-03-20T21:51:09.869Z,83.40
2023-03-20T21:53:57.648Z,57.85
2023-03-20T21:56:40.230Z,61.60
2023-03-20T21:59:27.123Z,89.30
2023-03-20T22:21:42.856Z,58.10
2023-03-20T22:24:37.968Z,54.85
2023-03-20T22:38:41.613Z,37.58
2023-03-20T22:41:54.959Z,40.58
2023-03-20T22:46:44.256Z,50.15
2023-03-20T22:49:07.673Z,42.15
2023-03-20T22:51:40.975Z,41.28
2023-03-20T22:54:12.070Z,53.17
2023-03-20T22:56:39.677Z,42.83
2023-03-20T22:59:07.021Z,44.42
2023-03-20T23:04:19.162Z,49.33
2023-03-20T23:06:46.745Z,53.92
2023-03-20T23:09:15.685Z,54.95
2023-03-20T23:11:43.835Z,52.22
2023-03-20T23:14:20.488Z,52.33
2023-03-20T23:16:50.862Z,54.00
2023-03-20T23:19:18.090Z,53.65
2023-03-20T23:21:45.539Z,57.17
2023-03-20T23:24:12.753Z,58.65
2023-03-20T23:26:40.355Z,59.38
2023-03-20T23:29:07.839Z,59.13
2023-03-20T23:31:35.285Z,59.55
2023-03-20T23:34:02.544Z,59.35
2023-03-20T23:36:36.906Z,57.28
2023-03-20T23:39:11.112Z,57.75
2023-03-20T23:42:09.894Z,57.80
2023-03-20T23:44:26.228Z,55.83
2023-03-20T23:46:55.456Z,56.42
2023-03-20T23:49:23.712Z,57.08
2023-03-20T23:51:51.277Z,54.25
2023-03-20T23:54:18.492Z,53.58
2023-03-20T23:56:46.144Z,51.95
